<?xml version="1.0" encoding="UTF-8" ?>
<gpx version="1.1" xmlns:xsi="http://www.w3.org/2001/XMLSchema-instance" 
    xmlns="http://www.topografix.com/GPX/1/1" 
    xsi:schemaLocation="http://www.topografix.com/GPX/1/1 http://www.topografix.com/GPX/1/1/gpx.xsd" 
    creator="Openrunner - https://www.openrunner.com" >	<trk>
						<name>11221476-Balade Verte - Sentier thématique Louvarel - CH4</name>
						<trkseg>
					<trkpt lat="46.492380" lon="5.326330">
						<ele>209</ele>
						<time>2020-04-21T14:51:46Z</time>
					</trkpt>
					<trkpt lat="46.492540" lon="5.325940">
						<ele>208</ele>
						<time>2020-04-21T14:52:28Z</time>
					</trkpt>
					<trkpt lat="46.492880" lon="5.326080">
						<ele>206</ele>
						<time>2020-04-21T14:53:15Z</time>
					</trkpt>
					<trkpt lat="46.492960" lon="5.325960">
						<ele>206</ele>
						<time>2020-04-21T14:53:30Z</time>
					</trkpt>
					<trkpt lat="46.493120" lon="5.325200">
						<ele>201</ele>
						<time>2020-04-21T14:54:43Z</time>
					</trkpt>
					<trkpt lat="46.493130" lon="5.324900">
						<ele>199</ele>
						<time>2020-04-21T14:55:11Z</time>
					</trkpt>
					<trkpt lat="46.493530" lon="5.325170">
						<ele>200</ele>
						<time>2020-04-21T14:56:10Z</time>
					</trkpt>
					<trkpt lat="46.493900" lon="5.325150">
						<ele>200</ele>
						<time>2020-04-21T14:56:59Z</time>
					</trkpt>
					<trkpt lat="46.494210" lon="5.324910">
						<ele>199</ele>
						<time>2020-04-21T14:57:46Z</time>
					</trkpt>
					<trkpt lat="46.494580" lon="5.324500">
						<ele>198</ele>
						<time>2020-04-21T14:58:48Z</time>
					</trkpt>
					<trkpt lat="46.494830" lon="5.324310">
						<ele>198</ele>
						<time>2020-04-21T14:59:26Z</time>
					</trkpt>
					<trkpt lat="46.494940" lon="5.324230">
						<ele>197</ele>
						<time>2020-04-21T14:59:42Z</time>
					</trkpt>
					<trkpt lat="46.495090" lon="5.324250">
						<ele>197</ele>
						<time>2020-04-21T15:00:02Z</time>
					</trkpt>
					<trkpt lat="46.495240" lon="5.324310">
						<ele>198</ele>
						<time>2020-04-21T15:00:23Z</time>
					</trkpt>
					<trkpt lat="46.495410" lon="5.324360">
						<ele>198</ele>
						<time>2020-04-21T15:00:46Z</time>
					</trkpt>
					<trkpt lat="46.495660" lon="5.324370">
						<ele>198</ele>
						<time>2020-04-21T15:01:20Z</time>
					</trkpt>
					<trkpt lat="46.495820" lon="5.324350">
						<ele>198</ele>
						<time>2020-04-21T15:01:41Z</time>
					</trkpt>
					<trkpt lat="46.496080" lon="5.324220">
						<ele>198</ele>
						<time>2020-04-21T15:02:18Z</time>
					</trkpt>
					<trkpt lat="46.496450" lon="5.324140">
						<ele>198</ele>
						<time>2020-04-21T15:03:08Z</time>
					</trkpt>
					<trkpt lat="46.496750" lon="5.324070">
						<ele>198</ele>
						<time>2020-04-21T15:03:48Z</time>
					</trkpt>
					<trkpt lat="46.496890" lon="5.324040">
						<ele>197</ele>
						<time>2020-04-21T15:04:07Z</time>
					</trkpt>
					<trkpt lat="46.496960" lon="5.323800">
						<ele>197</ele>
						<time>2020-04-21T15:04:31Z</time>
					</trkpt>
					<trkpt lat="46.497070" lon="5.323560">
						<ele>197</ele>
						<time>2020-04-21T15:04:57Z</time>
					</trkpt>
					<trkpt lat="46.497470" lon="5.323070">
						<ele>197</ele>
						<time>2020-04-21T15:06:07Z</time>
					</trkpt>
					<trkpt lat="46.497700" lon="5.322940">
						<ele>197</ele>
						<time>2020-04-21T15:06:40Z</time>
					</trkpt>
					<trkpt lat="46.497920" lon="5.322820">
						<ele>198</ele>
						<time>2020-04-21T15:07:12Z</time>
					</trkpt>
					<trkpt lat="46.498480" lon="5.322520">
						<ele>199</ele>
						<time>2020-04-21T15:08:31Z</time>
					</trkpt>
					<trkpt lat="46.498720" lon="5.322430">
						<ele>200</ele>
						<time>2020-04-21T15:09:04Z</time>
					</trkpt>
					<trkpt lat="46.498950" lon="5.322260">
						<ele>201</ele>
						<time>2020-04-21T15:09:39Z</time>
					</trkpt>
					<trkpt lat="46.499100" lon="5.322080">
						<ele>201</ele>
						<time>2020-04-21T15:10:05Z</time>
					</trkpt>
					<trkpt lat="46.499180" lon="5.321880">
						<ele>201</ele>
						<time>2020-04-21T15:10:26Z</time>
					</trkpt>
					<trkpt lat="46.499270" lon="5.321610">
						<ele>200</ele>
						<time>2020-04-21T15:10:53Z</time>
					</trkpt>
					<trkpt lat="46.499330" lon="5.321390">
						<ele>200</ele>
						<time>2020-04-21T15:11:15Z</time>
					</trkpt>
					<trkpt lat="46.499340" lon="5.321150">
						<ele>199</ele>
						<time>2020-04-21T15:11:37Z</time>
					</trkpt>
					<trkpt lat="46.499320" lon="5.320900">
						<ele>199</ele>
						<time>2020-04-21T15:12:00Z</time>
					</trkpt>
					<trkpt lat="46.499280" lon="5.320750">
						<ele>199</ele>
						<time>2020-04-21T15:12:15Z</time>
					</trkpt>
					<trkpt lat="46.499120" lon="5.320260">
						<ele>198</ele>
						<time>2020-04-21T15:13:05Z</time>
					</trkpt>
					<trkpt lat="46.498960" lon="5.319780">
						<ele>197</ele>
						<time>2020-04-21T15:13:54Z</time>
					</trkpt>
					<trkpt lat="46.498930" lon="5.319670">
						<ele>196</ele>
						<time>2020-04-21T15:14:05Z</time>
					</trkpt>
					<trkpt lat="46.498840" lon="5.319520">
						<ele>196</ele>
						<time>2020-04-21T15:14:23Z</time>
					</trkpt>
					<trkpt lat="46.498500" lon="5.319130">
						<ele>197</ele>
						<time>2020-04-21T15:15:21Z</time>
					</trkpt>
					<trkpt lat="46.498320" lon="5.319250">
						<ele>197</ele>
						<time>2020-04-21T15:15:47Z</time>
					</trkpt>
					<trkpt lat="46.498050" lon="5.319550">
						<ele>198</ele>
						<time>2020-04-21T15:16:33Z</time>
					</trkpt>
					<trkpt lat="46.497930" lon="5.319720">
						<ele>199</ele>
						<time>2020-04-21T15:16:55Z</time>
					</trkpt>
					<trkpt lat="46.497860" lon="5.319870">
						<ele>199</ele>
						<time>2020-04-21T15:17:12Z</time>
					</trkpt>
					<trkpt lat="46.497880" lon="5.320120">
						<ele>198</ele>
						<time>2020-04-21T15:17:35Z</time>
					</trkpt>
					<trkpt lat="46.497860" lon="5.320240">
						<ele>198</ele>
						<time>2020-04-21T15:17:46Z</time>
					</trkpt>
					<trkpt lat="46.497790" lon="5.320440">
						<ele>198</ele>
						<time>2020-04-21T15:18:07Z</time>
					</trkpt>
					<trkpt lat="46.497630" lon="5.320660">
						<ele>198</ele>
						<time>2020-04-21T15:18:36Z</time>
					</trkpt>
					<trkpt lat="46.497370" lon="5.320850">
						<ele>198</ele>
						<time>2020-04-21T15:19:15Z</time>
					</trkpt>
					<trkpt lat="46.497170" lon="5.321010">
						<ele>199</ele>
						<time>2020-04-21T15:19:46Z</time>
					</trkpt>
					<trkpt lat="46.496570" lon="5.321220">
						<ele>200</ele>
						<time>2020-04-21T15:21:08Z</time>
					</trkpt>
					<trkpt lat="46.495670" lon="5.321390">
						<ele>201</ele>
						<time>2020-04-21T15:23:09Z</time>
					</trkpt>
					<trkpt lat="46.495100" lon="5.321600">
						<ele>202</ele>
						<time>2020-04-21T15:24:27Z</time>
					</trkpt>
					<trkpt lat="46.494920" lon="5.321610">
						<ele>203</ele>
						<time>2020-04-21T15:24:52Z</time>
					</trkpt>
					<trkpt lat="46.494840" lon="5.321610">
						<ele>203</ele>
						<time>2020-04-21T15:25:02Z</time>
					</trkpt>
					<trkpt lat="46.494240" lon="5.321800">
						<ele>204</ele>
						<time>2020-04-21T15:26:24Z</time>
					</trkpt>
					<trkpt lat="46.493750" lon="5.321820">
						<ele>206</ele>
						<time>2020-04-21T15:27:30Z</time>
					</trkpt>
					<trkpt lat="46.493380" lon="5.321880">
						<ele>206</ele>
						<time>2020-04-21T15:28:19Z</time>
					</trkpt>
					<trkpt lat="46.493190" lon="5.321820">
						<ele>206</ele>
						<time>2020-04-21T15:28:45Z</time>
					</trkpt>
					<trkpt lat="46.493090" lon="5.321820">
						<ele>206</ele>
						<time>2020-04-21T15:28:59Z</time>
					</trkpt>
					<trkpt lat="46.492540" lon="5.321920">
						<ele>202</ele>
						<time>2020-04-21T15:30:13Z</time>
					</trkpt>
					<trkpt lat="46.492370" lon="5.321980">
						<ele>202</ele>
						<time>2020-04-21T15:30:36Z</time>
					</trkpt>
					<trkpt lat="46.492100" lon="5.321910">
						<ele>203</ele>
						<time>2020-04-21T15:31:12Z</time>
					</trkpt>
					<trkpt lat="46.491650" lon="5.321960">
						<ele>203</ele>
						<time>2020-04-21T15:32:13Z</time>
					</trkpt>
					<trkpt lat="46.491400" lon="5.322030">
						<ele>203</ele>
						<time>2020-04-21T15:32:47Z</time>
					</trkpt>
					<trkpt lat="46.491240" lon="5.322100">
						<ele>203</ele>
						<time>2020-04-21T15:33:09Z</time>
					</trkpt>
					<trkpt lat="46.491070" lon="5.322250">
						<ele>202</ele>
						<time>2020-04-21T15:33:36Z</time>
					</trkpt>
					<trkpt lat="46.490590" lon="5.322840">
						<ele>200</ele>
						<time>2020-04-21T15:34:59Z</time>
					</trkpt>
					<trkpt lat="46.490470" lon="5.322910">
						<ele>200</ele>
						<time>2020-04-21T15:35:17Z</time>
					</trkpt>
					<trkpt lat="46.490120" lon="5.322970">
						<ele>201</ele>
						<time>2020-04-21T15:36:04Z</time>
					</trkpt>
					<trkpt lat="46.489840" lon="5.322990">
						<ele>202</ele>
						<time>2020-04-21T15:36:41Z</time>
					</trkpt>
					<trkpt lat="46.489680" lon="5.323060">
						<ele>203</ele>
						<time>2020-04-21T15:37:03Z</time>
					</trkpt>
					<trkpt lat="46.489430" lon="5.323390">
						<ele>204</ele>
						<time>2020-04-21T15:37:48Z</time>
					</trkpt>
					<trkpt lat="46.489340" lon="5.323450">
						<ele>204</ele>
						<time>2020-04-21T15:38:02Z</time>
					</trkpt>
					<trkpt lat="46.489220" lon="5.323510">
						<ele>205</ele>
						<time>2020-04-21T15:38:19Z</time>
					</trkpt>
					<trkpt lat="46.489120" lon="5.323630">
						<ele>205</ele>
						<time>2020-04-21T15:38:36Z</time>
					</trkpt>
					<trkpt lat="46.489190" lon="5.323920">
						<ele>203</ele>
						<time>2020-04-21T15:39:04Z</time>
					</trkpt>
					<trkpt lat="46.489310" lon="5.324340">
						<ele>201</ele>
						<time>2020-04-21T15:39:46Z</time>
					</trkpt>
					<trkpt lat="46.489570" lon="5.325210">
						<ele>201</ele>
						<time>2020-04-21T15:41:13Z</time>
					</trkpt>
					<trkpt lat="46.489560" lon="5.325480">
						<ele>202</ele>
						<time>2020-04-21T15:41:38Z</time>
					</trkpt>
					<trkpt lat="46.489690" lon="5.325420">
						<ele>202</ele>
						<time>2020-04-21T15:41:56Z</time>
					</trkpt>
					<trkpt lat="46.489880" lon="5.325260">
						<ele>201</ele>
						<time>2020-04-21T15:42:25Z</time>
					</trkpt>
					<trkpt lat="46.490420" lon="5.324820">
						<ele>201</ele>
						<time>2020-04-21T15:43:48Z</time>
					</trkpt>
					<trkpt lat="46.490730" lon="5.324750">
						<ele>202</ele>
						<time>2020-04-21T15:44:30Z</time>
					</trkpt>
					<trkpt lat="46.490980" lon="5.324620">
						<ele>202</ele>
						<time>2020-04-21T15:45:05Z</time>
					</trkpt>
					<trkpt lat="46.491040" lon="5.324490">
						<ele>201</ele>
						<time>2020-04-21T15:45:20Z</time>
					</trkpt>
					<trkpt lat="46.491230" lon="5.324560">
						<ele>201</ele>
						<time>2020-04-21T15:45:46Z</time>
					</trkpt>
					<trkpt lat="46.491460" lon="5.324550">
						<ele>200</ele>
						<time>2020-04-21T15:46:17Z</time>
					</trkpt>
					<trkpt lat="46.491730" lon="5.324520">
						<ele>199</ele>
						<time>2020-04-21T15:46:53Z</time>
					</trkpt>
					<trkpt lat="46.492270" lon="5.324630">
						<ele>199</ele>
						<time>2020-04-21T15:48:06Z</time>
					</trkpt>
					<trkpt lat="46.492710" lon="5.324720">
						<ele>199</ele>
						<time>2020-04-21T15:49:05Z</time>
					</trkpt>
					<trkpt lat="46.493090" lon="5.324850">
						<ele>199</ele>
						<time>2020-04-21T15:49:57Z</time>
					</trkpt>
					<trkpt lat="46.493140" lon="5.324990">
						<ele>199</ele>
						<time>2020-04-21T15:50:11Z</time>
					</trkpt>
					<trkpt lat="46.493090" lon="5.325300">
						<ele>201</ele>
						<time>2020-04-21T15:50:41Z</time>
					</trkpt>
					<trkpt lat="46.492980" lon="5.325910">
						<ele>206</ele>
						<time>2020-04-21T15:51:39Z</time>
					</trkpt>
					<trkpt lat="46.492920" lon="5.326040">
						<ele>206</ele>
						<time>2020-04-21T15:51:53Z</time>
					</trkpt>
					<trkpt lat="46.492790" lon="5.326070">
						<ele>207</ele>
						<time>2020-04-21T15:52:11Z</time>
					</trkpt>
					<trkpt lat="46.492580" lon="5.325940">
						<ele>208</ele>
						<time>2020-04-21T15:52:41Z</time>
					</trkpt>
					<trkpt lat="46.492380" lon="5.326330">
						<ele>209</ele>
						<time>2020-04-21T15:53:26Z</time>
					</trkpt>
					</trkseg>
				</trk>
			</gpx>